createdAt,value
2023-01-26T00:02:14.706Z,101239.63
2023-01-26T00:04:45.590Z,101237.55
2023-01-26T00:07:21.878Z,101235.82
2023-01-26T00:09:56.408Z,101237.52
2023-01-26T00:12:34.783Z,101231.87
2023-01-26T00:15:12.970Z,101226.55
2023-01-26T00:17:54.450Z,101223.11
2023-01-26T00:21:39.825Z,101220.53
2023-01-26T00:24:39.993Z,101222.67
2023-01-26T00:27:13.308Z,101220.27
2023-01-26T00:29:51.675Z,101216.69
2023-01-26T00:32:24.172Z,101213.95
2023-01-26T00:34:55.008Z,101212.25
2023-01-26T00:37:32.986Z,101208.45
2023-01-26T00:40:09.815Z,101209.33
2023-01-26T00:42:43.497Z,101206.92
2023-01-26T00:45:34.803Z,101205.89
2023-01-26T00:48:11.758Z,101200.86
2023-01-26T00:50:47.458Z,101202.92
2023-01-26T00:53:20.751Z,101199.46
2023-01-26T00:56:07.533Z,101201.18
2023-01-26T00:58:42.152Z,101200.83
2023-01-26T01:01:23.516Z,101196.41
2023-01-26T01:04:08.181Z,101193.91
2023-01-26T01:06:40.477Z,101193.63
2023-01-26T01:09:22.000Z,101193.60
2023-01-26T01:12:01.586Z,101189.93
2023-01-26T01:14:40.431Z,101185.07
2023-01-26T01:17:15.638Z,101184.67
2023-01-26T01:19:53.948Z,101185.49
2023-01-26T01:22:55.107Z,101184.43
2023-01-26T01:25:46.886Z,101183.03
2023-01-26T01:28:20.729Z,101179.59
2023-01-26T01:30:59.985Z,101177.54
2023-01-26T01:33:36.971Z,101177.20
2023-01-26T01:36:17.127Z,101175.98
2023-01-26T01:38:55.252Z,101173.94
2023-01-26T01:41:44.789Z,101171.36
2023-01-26T01:44:38.798Z,101166.56
2023-01-26T01:47:26.012Z,101164.20
2023-01-26T01:50:05.523Z,101160.61
2023-01-26T01:52:53.610Z,101157.52
2023-01-26T01:55:30.648Z,101152.38
2023-01-26T01:58:17.841Z,101147.91
2023-01-26T02:00:50.855Z,101148.25
2023-01-26T02:03:34.071Z,101148.77
2023-01-26T02:06:46.456Z,101146.73
2023-01-26T02:09:37.263Z,101148.44
2023-01-26T02:12:11.629Z,101146.39
2023-01-26T02:14:45.514Z,101145.06
2023-01-26T02:17:22.468Z,101139.44
2023-01-26T02:20:13.750Z,101135.98
2023-01-26T02:23:01.436Z,101129.09
2023-01-26T02:25:41.800Z,101126.52
2023-01-26T02:28:12.926Z,101121.05
2023-01-26T02:30:46.933Z,101117.13
2023-01-26T02:33:24.262Z,101113.18
2023-01-26T02:36:07.733Z,101107.02
2023-01-26T02:39:20.342Z,101101.20
2023-01-26T02:42:17.380Z,101097.04
2023-01-26T02:44:54.054Z,101096.33
2023-01-26T02:47:45.602Z,101092.19
2023-01-26T02:50:20.269Z,101087.90
2023-01-26T02:52:52.010Z,101085.66
2023-01-26T02:55:30.802Z,101084.31
2023-01-26T02:58:05.434Z,101081.21
2023-01-26T03:00:47.598Z,101074.00
2023-01-26T03:03:44.539Z,101073.47
2023-01-26T03:06:29.716Z,101075.83
2023-01-26T03:09:06.563Z,101080.09
2023-01-26T03:11:44.350Z,101075.98
2023-01-26T03:14:19.279Z,101069.33
2023-01-26T03:16:52.777Z,101068.46
2023-01-26T03:19:42.149Z,101067.45
2023-01-26T03:22:31.526Z,101060.74
2023-01-26T03:25:21.235Z,101057.27
2023-01-26T03:27:54.911Z,101056.05
2023-01-26T03:30:34.312Z,101054.67
2023-01-26T03:33:09.823Z,101051.73
2023-01-26T03:35:54.327Z,101045.86
2023-01-26T03:38:42.590Z,101043.64
2023-01-26T03:41:47.792Z,101044.49
2023-01-26T03:44:44.361Z,101044.85
2023-01-26T03:47:33.244Z,101046.22
2023-01-26T03:50:41.663Z,101039.89
2023-01-26T03:53:39.597Z,101041.23
2023-01-26T03:56:23.755Z,101036.29
2023-01-26T03:59:26.962Z,101030.80
2023-01-26T04:02:29.953Z,101028.30
2023-01-26T04:05:23.994Z,101023.56
2023-01-26T04:08:23.115Z,101018.30
2023-01-26T04:11:15.500Z,101016.11
2023-01-26T04:14:07.721Z,101015.44
2023-01-26T04:17:05.252Z,101013.16
2023-01-26T04:19:57.117Z,101015.86
2023-01-26T04:22:45.651Z,101016.15
2023-01-26T04:25:22.317Z,101012.52
2023-01-26T04:27:58.408Z,101012.90
2023-01-26T04:30:42.042Z,101014.81
2023-01-26T04:33:17.590Z,101012.58
2023-01-26T04:35:58.868Z,101007.43
2023-01-26T04:38:40.315Z,101010.16
2023-01-26T04:41:15.840Z,101009.98
2023-01-26T04:43:57.945Z,101010.00
2023-01-26T04:46:37.749Z,101005.35
2023-01-26T04:49:19.025Z,101000.05
2023-01-26T04:51:59.946Z,101000.41
2023-01-26T04:54:47.473Z,100998.39
2023-01-26T04:57:21.464Z,100995.30
2023-01-26T05:00:05.383Z,100995.66
2023-01-26T05:02:44.273Z,100997.19
2023-01-26T05:05:19.035Z,100989.62
2023-01-26T05:07:54.220Z,100990.13
2023-01-26T05:10:29.401Z,100994.80
2023-01-26T05:13:26.635Z,100993.06
2023-01-26T05:16:24.308Z,100988.27
2023-01-26T05:19:52.521Z,100985.52
2023-01-26T05:26:09.630Z,100981.74
2023-01-26T05:32:19.500Z,100978.96
2023-01-26T05:35:05.724Z,100979.13
2023-01-26T05:37:51.214Z,100975.18
2023-01-26T05:40:32.119Z,100967.81
2023-01-26T05:43:34.073Z,100971.30
2023-01-26T05:46:53.004Z,100966.69
2023-01-26T05:49:52.280Z,100966.00
2023-01-26T05:52:59.708Z,100962.08
2023-01-26T05:55:52.991Z,100962.98
2023-01-26T05:58:41.384Z,100960.60
2023-01-26T06:01:21.807Z,100960.40
2023-01-26T06:04:12.847Z,100964.14
2023-01-26T06:07:13.817Z,100962.05
2023-01-26T06:10:05.478Z,100961.35
2023-01-26T06:13:24.872Z,100969.02
2023-01-26T06:16:22.261Z,100971.41
2023-01-26T06:19:08.566Z,100969.86
2023-01-26T06:21:57.705Z,100968.65
2023-01-26T06:24:47.458Z,100968.48
2023-01-26T06:27:31.527Z,100972.59
2023-01-26T06:30:22.862Z,100978.27
2023-01-26T06:33:12.490Z,100978.96
2023-01-26T06:36:05.250Z,100974.14
2023-01-26T06:38:56.691Z,100977.38
2023-01-26T06:41:34.545Z,100977.88
2023-01-26T06:44:23.960Z,100977.51
2023-01-26T06:47:11.575Z,100977.13
2023-01-26T06:49:56.011Z,100979.67
2023-01-26T06:52:52.301Z,100981.05
2023-01-26T06:55:54.038Z,100975.89
2023-01-26T06:58:40.876Z,100975.84
2023-01-26T07:01:22.659Z,100969.84
2023-01-26T07:04:10.056Z,100971.17
2023-01-26T07:06:59.518Z,100969.97
2023-01-26T07:09:32.490Z,100970.88
2023-01-26T07:12:19.826Z,100969.87
2023-01-26T07:14:58.686Z,100964.54
2023-01-26T07:17:53.272Z,100961.13
2023-01-26T07:20:49.498Z,100956.84
2023-01-26T07:23:35.118Z,100951.39
2023-01-26T07:26:35.179Z,100949.36
2023-01-26T07:29:30.871Z,100950.61
2023-01-26T07:32:06.965Z,100947.73
2023-01-26T07:34:49.984Z,100947.11
2023-01-26T07:37:20.615Z,100943.58
2023-01-26T07:39:59.224Z,100941.91
2023-01-26T07:42:42.489Z,100938.86
2023-01-26T07:45:56.639Z,100940.26
2023-01-26T07:48:33.668Z,100941.15
2023-01-26T07:51:19.203Z,100942.74
2023-01-26T07:54:12.777Z,100945.02
2023-01-26T07:56:57.772Z,100943.85
2023-01-26T07:59:40.495Z,100948.50
2023-01-26T08:02:27.111Z,100949.88
2023-01-26T08:05:12.124Z,100949.38
2023-01-26T08:08:05.515Z,100946.63
2023-01-26T08:10:46.491Z,100951.91
2023-01-26T08:13:45.831Z,100952.79
2023-01-26T08:16:22.033Z,100951.95
2023-01-26T08:18:55.605Z,100962.11
2023-01-26T08:21:37.976Z,100967.64
2023-01-26T08:24:35.092Z,100968.14
2023-01-26T08:27:16.133Z,100963.16
2023-01-26T08:30:00.216Z,100961.98
2023-01-26T08:32:31.096Z,100962.89
2023-01-26T08:35:05.855Z,100958.45
2023-01-26T08:37:45.982Z,100952.98
2023-01-26T08:40:20.439Z,100951.97
2023-01-26T08:43:04.803Z,100954.22
2023-01-26T08:45:42.891Z,100949.09
2023-01-26T08:48:24.347Z,100951.85
2023-01-26T08:51:02.105Z,100952.19
2023-01-26T08:53:37.708Z,100955.45
2023-01-26T08:56:11.999Z,100963.89
2023-01-26T08:58:56.663Z,100962.54
2023-01-26T09:01:29.800Z,100961.82
2023-01-26T09:04:07.669Z,100966.94
2023-01-26T09:06:38.184Z,100972.41
2023-01-26T09:09:13.424Z,100974.64
2023-01-26T09:11:51.349Z,100976.88
2023-01-26T09:14:28.943Z,100975.72
2023-01-26T09:17:02.817Z,100977.12
2023-01-26T09:19:43.078Z,100978.13
2023-01-26T09:22:46.878Z,100975.86
2023-01-26T09:25:30.227Z,100973.80
2023-01-26T09:28:07.214Z,100968.12
2023-01-26T09:30:39.428Z,100968.27
2023-01-26T09:33:19.419Z,100964.98
2023-01-26T09:35:53.797Z,100964.14
2023-01-26T09:38:30.608Z,100965.52
2023-01-26T09:41:41.655Z,100968.12
2023-01-26T09:44:26.886Z,100965.33
2023-01-26T09:47:12.798Z,100955.35
2023-01-26T09:50:16.352Z,100943.16
2023-01-26T09:53:07.360Z,100945.92
2023-01-26T09:55:42.225Z,100945.23
2023-01-26T09:58:36.424Z,100941.16
2023-01-26T10:01:17.626Z,100937.41
2023-01-26T10:04:03.154Z,100937.61
2023-01-26T10:06:36.829Z,100935.38
2023-01-26T10:09:49.619Z,100936.05
2023-01-26T10:12:34.689Z,100928.83
2023-01-26T10:15:27.834Z,100926.59
2023-01-26T10:18:02.915Z,100926.40
2023-01-26T10:20:49.804Z,100930.02
2023-01-26T10:23:34.330Z,100928.14
2023-01-26T10:26:22.887Z,100922.30
2023-01-26T10:28:53.636Z,100920.08
2023-01-26T10:31:35.676Z,100916.50
2023-01-26T10:34:08.443Z,100910.65
2023-01-26T10:36:37.939Z,100914.41
2023-01-26T10:39:15.642Z,100913.73
2023-01-26T10:42:03.679Z,100907.89
2023-01-26T10:44:39.597Z,100908.40
2023-01-26T10:47:23.823Z,100907.35
2023-01-26T10:50:24.252Z,100902.04
2023-01-26T10:53:32.623Z,100899.13
2023-01-26T10:56:20.670Z,100896.02
2023-01-26T10:59:02.173Z,100888.46
2023-01-26T11:01:52.632Z,100881.59
2023-01-26T11:04:23.537Z,100873.66
2023-01-26T11:06:58.123Z,100872.64
2023-01-26T11:09:31.962Z,100872.13
2023-01-26T11:12:06.098Z,100870.05
2023-01-26T11:14:38.131Z,100865.92
2023-01-26T11:17:24.012Z,100861.46
2023-01-26T11:20:42.200Z,100860.45
2023-01-26T11:23:58.940Z,100858.73
2023-01-26T11:27:22.953Z,100854.77
2023-01-26T11:30:04.186Z,100850.98
2023-01-26T11:33:00.430Z,100846.86
2023-01-26T11:36:13.979Z,100844.97
2023-01-26T11:39:21.147Z,100836.89
2023-01-26T11:42:07.587Z,100836.55
2023-01-26T11:45:22.229Z,100836.54
2023-01-26T11:48:25.179Z,100836.02
2023-01-26T11:51:05.657Z,100834.98
2023-01-26T11:54:50.946Z,100834.98
2023-01-26T11:57:37.933Z,100836.03
2023-01-26T12:00:34.375Z,100833.44
2023-01-26T12:03:13.310Z,100833.60
2023-01-26T12:05:52.677Z,100826.39
2023-01-26T12:08:44.102Z,100819.67
2023-01-26T12:11:49.037Z,100821.38
2023-01-26T12:14:41.034Z,100821.72
2023-01-26T12:17:32.088Z,100816.23
2023-01-26T12:20:36.359Z,100816.59
2023-01-26T12:23:56.253Z,100815.73
2023-01-26T12:26:39.273Z,100818.31
2023-01-26T12:29:33.585Z,100817.29
2023-01-26T12:32:20.533Z,100816.42
2023-01-26T12:34:54.489Z,100819.00
2023-01-26T12:37:38.290Z,100819.52
2023-01-26T12:40:35.102Z,100813.33
2023-01-26T12:43:31.872Z,100808.85
2023-01-26T12:46:04.615Z,100804.89
2023-01-26T12:48:47.207Z,100804.04
2023-01-26T12:51:44.991Z,100801.63
2023-01-26T12:54:40.661Z,100807.30
2023-01-26T12:57:22.151Z,100806.27
2023-01-26T12:59:52.611Z,100804.73
2023-01-26T13:02:36.329Z,100803.36
2023-01-26T13:05:34.019Z,100800.77
2023-01-26T13:08:34.673Z,100798.89
2023-01-26T13:11:09.361Z,100794.76
2023-01-26T13:13:57.383Z,100795.44
2023-01-26T13:16:47.270Z,100796.80
2023-01-26T13:19:43.940Z,100801.46
2023-01-26T13:22:22.738Z,100806.10
2023-01-26T13:25:32.387Z,100802.84
2023-01-26T13:28:04.298Z,100807.62
2023-01-26T13:30:44.236Z,100800.58
2023-01-26T13:33:25.944Z,100795.41
2023-01-26T13:35:56.260Z,100792.99
2023-01-26T13:38:40.544Z,100790.92
2023-01-26T13:41:21.297Z,100790.23
2023-01-26T13:44:05.014Z,100788.16
2023-01-26T13:46:57.182Z,100787.65
2023-01-26T13:49:49.706Z,100786.78
2023-01-26T13:52:27.139Z,100783.02
2023-01-26T13:54:58.355Z,100783.70
2023-01-26T13:57:31.911Z,100780.42
2023-01-26T14:00:01.846Z,100774.06
2023-01-26T14:02:38.979Z,100775.78
2023-01-26T14:05:24.814Z,100775.77
2023-01-26T14:07:58.425Z,100776.63
2023-01-26T14:10:28.840Z,100778.52
2023-01-26T14:13:02.906Z,100775.44
2023-01-26T14:15:38.591Z,100773.73
2023-01-26T14:18:22.850Z,100770.13
2023-01-26T14:21:01.011Z,100767.88
2023-01-26T14:23:37.422Z,100770.28
2023-01-26T14:26:22.078Z,100771.66
2023-01-26T14:28:51.896Z,100777.68
2023-01-26T14:31:26.734Z,100780.77
2023-01-26T14:33:59.590Z,100781.64
2023-01-26T14:36:42.069Z,100776.66
2023-01-26T14:39:21.111Z,100776.65
2023-01-26T14:41:50.719Z,100774.73
2023-01-26T14:44:20.208Z,100775.23
2023-01-26T14:47:06.634Z,100771.27
2023-01-26T14:50:12.373Z,100766.98
2023-01-26T14:52:46.932Z,100767.02
2023-01-26T14:55:28.481Z,100771.65
2023-01-26T14:58:01.598Z,100775.61
2023-01-26T15:00:37.283Z,100777.17
2023-01-26T15:03:58.292Z,100777.16
2023-01-26T15:06:37.600Z,100768.93
2023-01-26T15:09:29.467Z,100768.07
2023-01-26T15:12:19.086Z,100768.06
2023-01-26T15:14:55.966Z,100763.26
2023-01-26T15:17:42.701Z,100757.92
2023-01-26T15:20:15.291Z,100759.65
2023-01-26T15:22:53.305Z,100762.73
2023-01-26T15:25:32.025Z,100760.16
2023-01-26T15:28:02.435Z,100762.39
2023-01-26T15:30:40.197Z,100759.30
2023-01-26T15:33:41.406Z,100759.98
2023-01-26T15:36:51.212Z,100757.92
2023-01-26T15:39:22.211Z,100758.09
2023-01-26T15:42:14.264Z,100760.66
2023-01-26T15:44:44.071Z,100763.06
2023-01-26T15:47:15.547Z,100771.14
2023-01-26T15:49:45.916Z,100777.17
2023-01-26T15:52:26.085Z,100775.80
2023-01-26T15:55:02.261Z,100781.98
2023-01-26T15:57:32.233Z,100783.52
2023-01-26T16:00:02.580Z,100779.74
2023-01-26T16:02:36.737Z,100778.55
2023-01-26T16:05:21.246Z,100783.36
2023-01-26T16:08:20.685Z,100782.81
2023-01-26T16:11:29.995Z,100778.34
2023-01-26T16:14:15.623Z,100781.62
2023-01-26T16:16:53.728Z,100778.36
2023-01-26T16:19:36.856Z,100776.65
2023-01-26T16:22:18.356Z,100779.73
2023-01-26T16:24:54.544Z,100783.88
2023-01-26T16:27:25.560Z,100783.53
2023-01-26T16:29:55.611Z,100782.66
2023-01-26T16:32:32.284Z,100782.13
2023-01-26T16:35:21.279Z,100782.96
2023-01-26T16:38:01.043Z,100779.86
2023-01-26T16:40:34.373Z,100779.16
2023-01-26T16:43:18.501Z,100779.66
2023-01-26T16:45:52.237Z,100783.09
2023-01-26T16:48:35.037Z,100783.11
2023-01-26T16:51:26.059Z,100783.80
2023-01-26T16:53:57.635Z,100787.05
2023-01-26T16:56:35.743Z,100788.27
2023-01-26T16:59:13.196Z,100793.25
2023-01-26T17:01:43.457Z,100791.70
2023-01-26T17:04:13.621Z,100787.06
2023-01-26T17:06:48.036Z,100787.23
2023-01-26T17:09:39.029Z,100796.66
2023-01-26T17:12:14.080Z,100795.30
2023-01-26T17:14:52.824Z,100790.48
2023-01-26T17:17:34.158Z,100786.21
2023-01-26T17:20:18.843Z,100783.80
2023-01-26T17:22:50.787Z,100783.08
2023-01-26T17:25:20.876Z,100781.51
2023-01-26T17:27:56.470Z,100777.05
2023-01-26T17:30:38.571Z,100777.73
2023-01-26T17:33:10.371Z,100777.04
2023-01-26T17:35:43.717Z,100775.17
2023-01-26T17:38:25.612Z,100773.44
2023-01-26T17:40:59.662Z,100775.68
2023-01-26T17:43:44.356Z,100773.97
2023-01-26T17:46:47.803Z,100776.71
2023-01-26T17:49:40.501Z,100782.21
2023-01-26T17:52:15.824Z,100784.29
2023-01-26T17:54:53.762Z,100785.62
2023-01-26T17:57:24.322Z,100789.55
2023-01-26T17:59:55.201Z,100792.11
2023-01-26T18:02:29.286Z,100791.94
2023-01-26T18:05:18.855Z,100791.09
2023-01-26T18:07:52.408Z,100791.27
2023-01-26T18:10:35.899Z,100793.17
2023-01-26T18:13:17.633Z,100794.41
2023-01-26T18:16:14.748Z,100797.33
2023-01-26T18:19:36.555Z,100803.87
2023-01-26T18:22:22.456Z,100808.50
2023-01-26T18:28:57.685Z,100813.48
2023-01-26T18:31:43.565Z,100818.48
2023-01-26T18:34:23.593Z,100820.54
2023-01-26T18:37:02.070Z,100821.57
2023-01-26T18:39:40.396Z,100818.15
2023-01-26T18:42:10.505Z,100819.89
2023-01-26T18:44:52.062Z,100820.25
2023-01-26T18:47:31.778Z,100818.55
2023-01-26T18:50:04.465Z,100821.31
2023-01-26T18:52:35.054Z,100825.09
2023-01-26T18:55:14.867Z,100825.61
2023-01-26T18:57:55.542Z,100828.69
2023-01-26T19:00:41.915Z,100823.19
2023-01-26T19:03:35.868Z,100824.56
2023-01-26T19:06:16.439Z,100828.50
2023-01-26T19:09:04.786Z,100827.98
2023-01-26T19:11:47.481Z,100825.75
2023-01-26T19:14:19.994Z,100822.13
2023-01-26T19:16:55.236Z,100822.48
2023-01-26T19:19:27.042Z,100823.70
2023-01-26T19:21:56.991Z,100820.44
2023-01-26T19:24:37.295Z,100821.80
2023-01-26T19:27:10.193Z,100823.16
2023-01-26T19:30:14.311Z,100819.21
2023-01-26T19:33:15.091Z,100815.45
2023-01-26T19:35:50.419Z,100813.04
2023-01-26T19:38:25.124Z,100808.56
2023-01-26T19:40:54.776Z,100804.26
2023-01-26T19:43:50.216Z,100802.69
2023-01-26T19:46:47.244Z,100803.00
2023-01-26T19:49:31.104Z,100803.15
2023-01-26T19:52:32.822Z,100801.06
2023-01-26T19:55:08.296Z,100798.14
2023-01-26T19:57:45.218Z,100798.14
2023-01-26T20:00:22.976Z,100797.98
2023-01-26T20:03:02.969Z,100794.56
2023-01-26T20:08:45.484Z,100797.48
2023-01-26T20:11:23.601Z,100798.02
2023-01-26T20:14:13.750Z,100798.84
2023-01-26T20:16:47.715Z,100795.94
2023-01-26T20:19:28.169Z,100795.61
2023-01-26T20:22:02.601Z,100796.51
2023-01-26T20:24:34.666Z,100801.15
2023-01-26T20:27:13.573Z,100805.46
2023-01-26T20:29:53.212Z,100805.65
2023-01-26T20:32:27.793Z,100807.21
2023-01-26T20:35:11.839Z,100809.11
2023-01-26T20:37:44.152Z,100810.31
2023-01-26T20:40:22.098Z,100811.00
2023-01-26T20:42:57.278Z,100811.17
2023-01-26T20:45:29.919Z,100809.78
2023-01-26T20:48:01.256Z,100806.33
2023-01-26T20:50:41.538Z,100804.75
2023-01-26T20:53:22.591Z,100806.64
2023-01-26T20:56:00.824Z,100807.32
2023-01-26T20:58:30.816Z,100806.79
2023-01-26T21:01:21.013Z,100803.88
2023-01-26T21:03:53.973Z,100802.31
2023-01-26T21:06:29.813Z,100801.45
2023-01-26T21:09:01.213Z,100797.48
2023-01-26T21:11:35.115Z,100798.35
2023-01-26T21:14:12.185Z,100794.88
2023-01-26T21:16:45.153Z,100793.65
2023-01-26T21:19:18.240Z,100793.98
2023-01-26T21:21:53.300Z,100791.21
2023-01-26T21:24:59.183Z,100787.59
2023-01-26T21:27:40.911Z,100785.49
2023-01-26T21:30:31.758Z,100790.45
2023-01-26T21:33:05.315Z,100791.30
2023-01-26T21:35:38.611Z,100790.25
2023-01-26T21:38:13.848Z,100789.39
2023-01-26T21:40:51.573Z,100779.63
2023-01-26T21:43:25.563Z,100780.98
2023-01-26T21:46:02.481Z,100777.58
2023-01-26T21:48:39.782Z,100773.98
2023-01-26T21:51:30.838Z,100776.05
2023-01-26T21:54:04.103Z,100776.40
2023-01-26T21:56:43.403Z,100779.34
2023-01-26T21:59:21.919Z,100781.73
2023-01-26T22:01:57.677Z,100778.33
2023-01-26T22:04:31.188Z,100776.46
2023-01-26T22:07:01.283Z,100774.95
2023-01-26T22:09:39.089Z,100772.04
2023-01-26T22:12:30.981Z,100769.30
2023-01-26T22:15:03.551Z,100768.64
2023-01-26T22:17:38.611Z,100769.14
2023-01-26T22:20:19.996Z,100772.24
2023-01-26T22:23:00.160Z,100774.64
2023-01-26T22:25:33.921Z,100774.48
2023-01-26T22:28:09.333Z,100779.13
2023-01-26T22:30:45.425Z,100775.52
2023-01-26T22:33:18.513Z,100778.29
2023-01-26T22:35:50.238Z,100777.27
2023-01-26T22:38:24.069Z,100777.44
2023-01-26T22:40:58.131Z,100782.93
2023-01-26T22:43:29.008Z,100784.32
2023-01-26T22:46:12.138Z,100783.11
2023-01-26T22:48:42.533Z,100784.98
2023-01-26T22:51:18.091Z,100781.54
2023-01-26T22:53:57.092Z,100782.22
2023-01-26T22:56:38.435Z,100782.40
2023-01-26T22:59:18.735Z,100778.63
2023-01-26T23:02:08.153Z,100780.52
2023-01-26T23:04:43.601Z,100778.27
2023-01-26T23:07:28.335Z,100777.93
2023-01-26T23:10:12.084Z,100780.34
2023-01-26T23:12:51.039Z,100778.79
2023-01-26T23:15:37.911Z,100773.48
2023-01-26T23:18:18.138Z,100772.98
2023-01-26T23:20:54.499Z,100774.67
2023-01-26T23:23:39.419Z,100772.96
2023-01-26T23:26:13.219Z,100774.00
2023-01-26T23:28:45.899Z,100770.74
2023-01-26T23:31:19.382Z,100768.69
2023-01-26T23:33:52.780Z,100771.74
2023-01-26T23:36:28.136Z,100775.52
2023-01-26T23:39:06.033Z,100774.50
2023-01-26T23:41:41.047Z,100769.86
2023-01-26T23:44:16.064Z,100771.07
2023-01-26T23:46:51.003Z,100769.86
2023-01-26T23:49:24.479Z,100770.73
2023-01-26T23:52:02.430Z,100773.82
2023-01-26T23:54:32.875Z,100771.94
2023-01-26T23:57:09.127Z,100767.98
2023-01-26T23:59:54.044Z,100765.92
